Other Surface Observations
Issued by NWS Missoula, MT

Home | Current Version | Previous Version | Text Only | Print | Product List | Glossary On
Versions: 1 2 3 4 5 6 7 8 9 10 11 12 13 14 15 16 17 18 19 20 21 22 23 24 25 26 27 28 29 30 31 32 33 34 35 36 37 38 39 40 41 42 43 44 45 46 47 48 49 50
000
SXUS55 KMSO 290043
OSOMSO
MONTANA AWOS SUMMARY
NATIONAL WEATHER SERVICE MISSOULA MT
643 PM MDT FRI AUG 28 2015

Montana AWOS Reports

LAUREL      |K6S8 290035Z AUTO 00000KT 10SM 29/08 A3000 RMK AO1 T02940078
TWIN BRIDGES|K7S1 290035Z AUTO 14005KT 15SM 27/07 A3003 RMK AO1 T02720067
ROUNDUP     |KRPX 290035Z AUTO 00000KT 40SM 31/M01 A2990 RMK AO1 T03061010
MALTA       |KM75 290035Z AUTO 00000KT 7SM 28/12 A2987 RMK AO1 T02830122




USA.gov is the U.S. government's official web portal to all federal, state and local government web resources and services.